Time;durP1;ratioP1;P1;durP2;ratioP2;P2;SDS_P1;SDS_P2;PMS_P1;PMS_P2;Temp;Humidity;BMP_temperature;BMP_pressure;BME280_temperature;BME280_humidity;BME280_pressure;Samples;Min_cycle;Max_cycle;Signal;HPM_P1;HPM_P2
2022/06/02 00:00:45;;;;;;;13.80;8.18;;;;;;;21.79;100.00;100936.28;1727476;82;21190;-78
2022/06/02 00:03:29;;;;;;;14.65;9.38;;;;;;;21.76;100.00;100945.23;1718253;81;21073;-79
2022/06/02 00:06:05;;;;;;;;;;;;;;;21.72;100.00;100946.46;1721835;81;21081;-78
2022/06/02 00:09:05;;;;;;;16.57;10.40;;;;;;;21.63;100.00;100938.05;1728719;82;20099;-79
2022/06/02 00:11:44;;;;;;;14.23;6.55;;;;;;;21.53;100.00;100939.78;1734939;82;21112;-78
2022/06/02 00:14:19;;;;;;;12.03;6.95;;;;;;;21.59;100.00;100945.81;1746683;81;21064;-79
2022/06/02 00:17:08;;;;;;;11.88;7.05;;;;;;;21.70;100.00;100937.89;1753015;82;21045;-79
2022/06/02 00:19:59;;;;;;;12.78;7.45;;;;;;;21.68;100.00;100928.52;1746116;82;21088;-78
2022/06/02 00:23:06;;;;;;;14.43;6.95;;;;;;;21.67;100.00;100922.91;1721724;82;21046;-79
2022/06/02 00:26:03;;;;;;;13.43;7.50;;;;;;;21.65;100.00;100923.52;1746119;82;21073;-80
2022/06/02 00:29:05;;;;;;;8.63;6.10;;;;;;;21.64;100.00;100924.00;1745805;82;21045;-79
2022/06/02 00:31:43;;;;;;;14.45;6.55;;;;;;;21.57;100.00;100921.53;1730748;81;21071;-78
2022/06/02 00:34:44;;;;;;;9.45;5.72;;;;;;;21.56;100.00;100915.96;1721069;81;21081;-79
2022/06/02 00:37:29;;;;;;;11.03;5.25;;;;;;;21.56;100.00;100915.96;1735139;81;21535;-79
2022/06/02 00:39:59;;;;;;;12.82;6.97;;;;;;;21.54;100.00;100915.27;1751814;81;21002;-80
2022/06/02 00:42:41;;;;;;;12.93;6.62;;;;;;;21.58;100.00;100915.35;1734529;82;21062;-79
2022/06/02 00:45:15;;;;;;;14.07;6.60;;;;;;;21.53;100.00;100914.89;1723075;82;21033;-79
2022/06/02 00:47:59;;;;;;;12.88;7.40;;;;;;;21.55;100.00;100919.07;1746622;82;21021;-79
2022/06/02 00:50:49;;;;;;;11.88;8.53;;;;;;;21.53;100.00;100917.06;1711905;81;21042;-80
2022/06/02 00:53:40;;;;;;;14.70;8.78;;;;;;;21.48;100.00;100913.16;1731185;82;21065;-77
2022/06/02 00:59:33;;;;;;;13.35;8.38;;;;;;;21.49;100.00;100915.66;1728937;82;21077;-78
2022/06/02 01:02:01;;;;;;;13.88;8.78;;;;;;;21.44;100.00;100919.13;1736061;82;21034;-79
2022/06/02 01:04:28;;;;;;;12.75;8.43;;;;;;;21.41;100.00;100926.73;1718834;82;21097;-79
2022/06/02 01:07:17;;;;;;;13.70;8.23;;;;;;;21.40;100.00;100923.75;1729166;81;21108;-79
2022/06/02 01:10:11;;;;;;;10.32;8.13;;;;;;;21.36;100.00;100918.41;1737255;82;21077;-80
2022/06/02 01:13:07;;;;;;;14.25;8.45;;;;;;;21.30;100.00;100919.41;1730008;82;21081;-79
2022/06/02 01:15:57;;;;;;;14.28;8.43;;;;;;;21.19;100.00;100927.67;1734459;81;21018;-78
2022/06/02 01:19:02;;;;;;;12.55;8.33;;;;;;;21.17;100.00;100915.68;1750779;82;21076;-80
2022/06/02 01:22:08;;;;;;;14.65;8.00;;;;;;;21.07;100.00;100912.98;1735868;82;21048;-78
2022/06/02 01:24:55;;;;;;;11.20;8.28;;;;;;;21.01;100.00;100905.14;1736660;82;21545;-80
2022/06/02 01:28:18;;;;;;;12.88;8.35;;;;;;;21.04;100.00;100915.01;1749806;82;21041;-79
2022/06/02 01:31:06;;;;;;;11.53;8.08;;;;;;;21.02;100.00;100909.89;1738328;82;21537;-78
2022/06/02 01:33:58;;;;;;;17.67;8.03;;;;;;;21.01;100.00;100907.77;1731525;81;21061;-79
2022/06/02 01:36:52;;;;;;;12.58;7.53;;;;;;;20.96;100.00;100913.02;1726591;81;21092;-80
2022/06/02 01:39:35;;;;;;;;;;;;;;;20.96;100.00;100924.30;1733706;81;20994;-79
2022/06/02 01:42:41;;;;;;;17.67;9.93;;;;;;;20.91;100.00;100923.04;1709868;81;20113;-78
2022/06/02 01:45:36;;;;;;;14.23;9.33;;;;;;;20.93;100.00;100920.64;1726836;81;21015;-78
2022/06/02 01:48:31;;;;;;;15.38;9.13;;;;;;;20.95;100.00;100921.84;1740279;81;21655;-79
2022/06/02 01:51:34;;;;;;;15.38;9.08;;;;;;;20.98;100.00;100921.09;1745041;82;21735;-78
2022/06/02 01:54:15;;;;;;;13.62;8.93;;;;;;;21.00;100.00;100916.59;1741326;82;21014;-79
2022/06/02 01:57:12;;;;;;;10.35;8.30;;;;;;;21.00;100.00;100911.35;1737129;81;21545;-79
2022/06/02 02:00:10;;;;;;;17.10;8.13;;;;;;;21.01;100.00;100912.17;1745513;82;21108;-80
2022/06/02 02:03:18;;;;;;;17.05;8.15;;;;;;;20.94;100.00;100913.62;1739373;81;21560;-79
2022/06/02 02:05:53;;;;;;;15.85;7.35;;;;;;;20.93;100.00;100920.64;1746940;82;21111;-79
2022/06/02 02:08:45;;;;;;;14.13;6.97;;;;;;;20.85;100.00;100923.05;1728135;81;21568;-79
2022/06/02 02:11:36;;;;;;;14.65;6.65;;;;;;;20.88;100.00;100933.25;1731134;82;21612;-79
2022/06/02 02:14:21;;;;;;;11.57;8.25;;;;;;;20.92;100.00;100929.44;1738395;82;21050;-80
2022/06/02 02:17:28;;;;;;;15.98;8.03;;;;;;;20.98;100.00;100919.77;1733229;81;21092;-79
2022/06/02 02:20:17;;;;;;;13.50;8.28;;;;;;;21.10;100.00;100914.50;1743670;82;21078;-80
2022/06/02 02:23:11;;;;;;;15.43;8.85;;;;;;;21.15;100.00;100913.18;1737379;82;21084;-81
2022/06/02 02:26:13;;;;;;;11.47;8.10;;;;;;;21.15;100.00;100916.28;1746374;81;21089;-79
2022/06/02 02:29:09;;;;;;;17.12;8.90;;;;;;;21.13;100.00;100912.47;1715615;81;21010;-79
2022/06/02 02:32:07;;;;;;;16.10;9.18;;;;;;;21.12;100.00;100916.03;1730859;81;21070;-78
2022/06/02 02:35:27;;;;;;;17.05;8.95;;;;;;;21.23;100.00;100928.72;1708625;83;21123;-79
2022/06/02 02:38:03;;;;;;;13.53;9.00;;;;;;;21.22;100.00;100923.97;1719967;81;21584;-78
2022/06/02 02:40:58;;;;;;;16.75;10.03;;;;;;;21.29;100.00;100929.06;1720430;82;21047;-78
2022/06/02 02:43:38;;;;;;;15.30;9.30;;;;;;;21.33;100.00;100926.55;1725109;82;21022;-77
2022/06/02 02:46:40;;;;;;;15.95;9.55;;;;;;;21.38;100.00;100932.70;1729629;81;21533;-78
2022/06/02 02:49:18;;;;;;;12.90;9.18;;;;;;;21.49;100.00;100932.68;1725817;81;21511;-78
2022/06/02 02:52:09;;;;;;;14.58;9.13;;;;;;;21.50;100.00;100936.13;1719030;82;21007;-79
2022/06/02 02:54:53;;;;;;;13.03;8.43;;;;;;;21.50;100.00;100936.95;1722705;81;21502;-78
2022/06/02 02:57:37;;;;;;;12.10;8.73;;;;;;;21.56;100.00;100941.67;1726428;82;21003;-78
2022/06/02 03:00:16;;;;;;;11.97;8.45;;;;;;;21.68;100.00;100933.75;1726890;81;21078;-80
2022/06/02 03:03:09;;;;;;;11.65;8.45;;;;;;;21.73;100.00;100935.48;1721814;81;21042;-79
2022/06/02 03:05:59;;;;;;;13.43;8.28;;;;;;;21.83;100.00;100929.81;1722239;82;20999;-79
2022/06/02 03:09:06;;;;;;;14.00;8.53;;;;;;;21.91;100.00;100931.30;1717961;82;21051;-79
2022/06/02 03:11:55;;;;;;;12.82;8.78;;;;;;;21.97;100.00;100936.51;1705507;82;21126;-78
2022/06/02 03:15:03;;;;;;;13.68;8.35;;;;;;;22.09;100.00;100935.95;1685313;83;21043;-79
2022/06/02 03:17:53;;;;;;;15.05;9.58;;;;;;;22.15;100.00;100941.97;1685094;82;21547;-79
2022/06/02 03:20:41;;;;;;;13.40;8.60;;;;;;;22.36;100.00;100937.98;1685056;84;21106;-80
2022/06/02 03:23:42;;;;;;;12.15;8.00;;;;;;;22.43;100.00;100940.44;1684893;84;21022;-79
2022/06/02 03:26:50;;;;;;;13.10;8.05;;;;;;;22.54;100.00;100932.93;1690885;84;21655;-79
2022/06/02 03:29:44;;;;;;;12.07;8.05;;;;;;;22.65;100.00;100940.70;1687780;82;21054;-80
2022/06/02 03:32:36;;;;;;;11.35;7.47;;;;;;;22.77;100.00;100936.16;1684282;84;21530;-80
2022/06/02 03:35:26;;;;;;;13.25;7.45;;;;;;;22.75;100.00;100945.94;1683914;84;21043;-79
2022/06/02 03:38:33;;;;;;;11.12;7.42;;;;;;;22.92;100.00;100936.58;1685703;84;21174;-80
2022/06/02 03:41:37;;;;;;;20.60;7.47;;;;;;;23.07;100.00;100937.02;1695998;84;21042;-80
2022/06/02 03:45:00;;;;;;;12.25;7.65;;;;;;;23.14;100.00;100944.20;1692079;83;21019;-79
2022/06/02 03:47:51;;;;;;;14.63;6.95;;;;;;;23.28;100.00;100949.53;1684594;83;21114;-80
2022/06/02 03:50:55;;;;;;;10.72;6.53;;;;;;;23.51;100.00;100947.91;1666185;84;21035;-80
2022/06/02 03:53:59;;;;;;;11.68;6.40;;;;;;;23.66;100.00;100947.81;1702744;83;21083;-79
2022/06/02 03:56:56;;;;;;;14.55;6.25;;;;;;;23.85;100.00;100947.45;1687159;84;21027;-80
2022/06/02 03:59:44;;;;;;;11.18;5.97;;;;;;;24.06;100.00;100951.16;1681622;85;21051;-79
2022/06/02 04:02:19;;;;;;;12.58;5.78;;;;;;;24.16;100.00;100954.08;1693010;82;21086;-79
2022/06/02 04:04:54;;;;;;;10.65;6.05;;;;;;;24.37;100.00;100953.86;1700495;83;21069;-80
2022/06/02 04:07:39;;;;;;;15.90;5.83;;;;;;;24.48;100.00;100952.00;1686750;84;21804;-80
2022/06/02 04:10:16;;;;;;;10.95;5.80;;;;;;;24.56;100.00;100950.31;1681752;84;21171;-79
2022/06/02 04:16:34;;;;;;;14.58;6.15;;;;;;;24.81;100.00;100953.69;1690979;82;21082;-80
2022/06/02 04:22:28;;;;;;;13.25;6.35;;;;;;;25.04;100.00;100952.27;1693145;82;21514;-81
2022/06/02 04:25:09;;;;;;;11.95;5.97;;;;;;;25.08;100.00;100944.88;1698246;82;21589;-81
2022/06/02 04:28:06;;;;;;;10.08;6.08;;;;;;;25.27;100.00;100956.59;1694581;84;21049;-80
2022/06/02 04:31:08;;;;;;;10.28;5.40;;;;;;;25.50;100.00;100958.23;1697533;82;21058;-80
2022/06/02 04:33:40;;;;;;;12.33;6.12;;;;;;;25.57;100.00;100963.75;1681625;85;21135;-80
2022/06/02 04:36:19;;;;;;;12.45;6.17;;;;;;;25.66;100.00;100970.70;1681852;85;21095;-81
2022/06/02 04:38:57;;;;;;;11.33;5.80;;;;;;;25.76;100.00;100970.61;1689520;83;21094;-81
2022/06/02 04:41:39;;;;;;;12.25;6.17;;;;;;;25.65;100.00;100975.66;1699762;82;21534;-79
2022/06/02 04:44:44;;;;;;;14.73;5.90;;;;;;;25.79;100.00;100972.92;1685682;83;21089;-80
2022/06/02 04:47:24;;;;;;;14.15;6.05;;;;;;;25.87;100.00;100978.27;1672908;84;21533;-80
2022/06/02 04:50:11;;;;;;;13.18;5.47;;;;;;;25.95;100.00;100974.86;1662643;85;21561;-80
2022/06/02 04:53:01;;;;;;;10.70;5.80;;;;;;;25.89;100.00;100971.50;1670335;85;21047;-81
2022/06/02 04:55:40;;;;;;;12.07;5.50;;;;;;;26.01;100.00;100966.31;1689754;82;21050;-80
2022/06/02 04:58:35;;;;;;;9.78;5.08;;;;;;;26.28;100.00;100972.40;1695877;82;21554;-81
2022/06/02 05:01:26;;;;;;;14.58;5.33;;;;;;;26.22;100.00;100961.12;1689207;83;21586;-81
2022/06/02 05:04:10;;;;;;;15.53;5.62;;;;;;;26.24;100.00;100963.12;1681987;85;21035;-81
2022/06/02 05:07:02;;;;;;;16.80;5.28;;;;;;;26.51;100.00;100957.61;1687781;83;21095;-80
2022/06/02 05:09:39;;;;;;;11.22;5.70;;;;;;;26.69;100.00;100956.70;1701236;84;21011;-80
2022/06/02 05:12:46;;;;;;;14.10;5.30;;;;;;;26.92;100.00;100956.89;1687246;82;21649;-79
2022/06/02 05:15:24;;;;;;;14.95;5.22;;;;;;;26.82;100.00;100955.72;1684550;85;21055;-81
2022/06/02 05:18:35;;;;;;;11.00;5.08;;;;;;;27.01;100.00;100956.39;1689476;84;21042;-82
2022/06/02 05:21:36;;;;;;;11.08;4.80;;;;;;;27.09;100.00;100953.75;1691294;84;21581;-82
2022/06/02 05:24:29;;;;;;;14.13;4.80;;;;;;;27.25;100.00;100964.38;1688804;83;21055;-81
2022/06/02 05:27:28;;;;;;;13.85;4.95;;;;;;;27.28;100.00;100965.36;1667924;82;21187;-79
2022/06/02 05:30:15;;;;;;;11.85;4.87;;;;;;;27.47;100.00;100968.64;1667824;84;21152;-80
2022/06/02 05:33:04;;;;;;;10.28;4.37;;;;;;;27.68;100.00;100968.95;1713354;83;21503;-82
2022/06/02 05:36:04;;;;;;;13.83;4.60;;;;;;;27.81;100.00;100971.56;1689764;82;21031;-81
2022/06/02 05:39:05;;;;;;;12.43;4.80;;;;;;;27.71;100.00;100980.50;1686202;84;21043;-79
2022/06/02 05:42:14;;;;;;;9.85;4.60;;;;;;;27.68;100.00;100980.85;1685032;82;21060;-79
2022/06/02 05:44:53;;;;;;;10.38;4.35;;;;;;;27.93;100.00;100981.64;1686808;83;21115;-80
2022/06/02 05:47:56;;;;;;;12.20;5.03;;;;;;;28.03;100.00;100980.63;1682979;82;21031;-81
2022/06/02 05:50:49;;;;;;;13.28;4.50;;;;;;;28.29;100.00;100980.37;1702262;82;21054;-81
2022/06/02 05:53:28;;;;;;;13.35;4.42;;;;;;;28.45;100.00;100987.41;1684747;84;21035;-80
2022/06/02 05:56:36;;;;;;;12.35;4.75;;;;;;;28.49;97.39;100990.86;1681611;85;21130;-80
2022/06/02 05:59:27;;;;;;;7.30;3.95;;;;;;;28.75;98.68;100988.41;1696277;82;21082;-80
2022/06/02 06:02:36;;;;;;;9.68;3.95;;;;;;;28.96;98.19;100989.92;1694446;82;21007;-81
2022/06/02 06:05:29;;;;;;;13.50;4.72;;;;;;;29.06;97.39;100996.83;1688000;84;21571;-80
2022/06/02 06:08:11;;;;;;;18.02;4.37;;;;;;;28.85;94.49;100993.48;1684809;82;21023;-79
2022/06/02 06:11:15;;;;;;;12.70;4.20;;;;;;;29.02;96.83;100991.56;1698201;82;21078;-77
2022/06/02 06:14:13;;;;;;;;;;;;;;;29.01;94.03;100993.37;1684468;84;21044;-80
2022/06/02 06:16:45;;;;;;;14.55;4.20;;;;;;;29.09;89.85;100998.60;1687025;83;20118;-81
2022/06/02 06:19:20;;;;;;;10.72;3.85;;;;;;;29.28;89.64;100999.15;1684704;84;21050;-79
2022/06/02 06:22:16;;;;;;;12.88;4.35;;;;;;;29.31;84.92;101004.11;1680726;84;21134;-77
2022/06/02 06:25:08;;;;;;;10.35;4.00;;;;;;;29.54;82.67;101002.73;1683417;83;21083;-80
2022/06/02 06:28:12;;;;;;;20.50;4.83;;;;;;;29.69;83.12;100998.28;1682552;84;21087;-78
2022/06/02 06:30:53;;;;;;;12.37;4.30;;;;;;;29.53;81.56;101001.92;1689338;82;21023;-77
2022/06/02 06:33:37;;;;;;;13.10;3.90;;;;;;;29.86;88.92;101000.80;1684661;82;21038;-77
2022/06/02 06:36:28;;;;;;;10.05;4.12;;;;;;;30.16;84.92;101000.29;1696141;82;21549;-78
2022/06/02 06:39:22;;;;;;;10.93;4.45;;;;;;;30.34;84.15;100999.42;1685061;83;21023;-78
2022/06/02 06:42:32;;;;;;;13.20;3.77;;;;;;;30.53;84.17;100990.03;1683955;84;21588;-78
2022/06/02 06:45:18;;;;;;;14.50;4.15;;;;;;;30.61;82.90;100992.27;1698425;84;21031;-78
2022/06/02 06:48:03;;;;;;;14.05;3.85;;;;;;;30.60;84.16;100992.78;1681696;85;21033;-78
2022/06/02 06:50:41;;;;;;;10.18;4.33;;;;;;;30.82;81.85;100988.31;1689153;83;21573;-78
2022/06/02 06:53:25;;;;;;;13.20;4.10;;;;;;;30.82;82.23;100990.97;1690123;82;21511;-78
2022/06/02 06:56:00;;;;;;;9.83;3.80;;;;;;;30.55;78.45;100994.65;1681299;83;21079;-77
2022/06/02 06:58:53;;;;;;;9.25;3.90;;;;;;;30.69;79.71;100980.19;1692320;82;21070;-78
2022/06/02 07:01:45;;;;;;;11.05;3.92;;;;;;;30.89;80.40;100985.23;1685370;83;21169;-77
2022/06/02 07:04:46;;;;;;;6.95;3.70;;;;;;;30.95;81.10;100992.95;1681971;85;21039;-77
2022/06/02 07:08:00;;;;;;;12.90;4.20;;;;;;;30.69;78.57;100991.64;1685487;82;21110;-78
2022/06/02 07:10:55;;;;;;;12.03;4.40;;;;;;;30.85;78.72;100995.89;1686240;83;21138;-78
2022/06/02 07:13:41;;;;;;;9.88;3.65;;;;;;;31.13;78.13;100995.98;1699407;83;21051;-78
2022/06/02 07:16:27;;;;;;;10.38;3.92;;;;;;;31.57;80.73;101000.77;1685476;84;21015;-78
2022/06/02 07:19:13;;;;;;;12.55;3.98;;;;;;;31.74;77.97;100998.61;1696572;84;21079;-78
2022/06/02 07:22:13;;;;;;;12.43;4.05;;;;;;;31.65;77.84;101003.28;1687630;83;21083;-77
2022/06/02 07:25:13;;;;;;;15.95;4.70;;;;;;;31.85;74.22;101002.05;1688432;83;21074;-78
2022/06/02 07:28:12;;;;;;;11.25;4.12;;;;;;;31.94;74.56;100998.22;1679781;84;21056;-77
2022/06/02 07:31:03;;;;;;;8.95;3.65;;;;;;;31.91;76.26;101000.45;1687646;82;21103;-78
2022/06/02 07:33:50;;;;;;;13.80;3.67;;;;;;;31.87;71.24;100997.34;1640400;85;21084;-77
2022/06/02 07:36:55;;;;;;;10.55;3.42;;;;;;;31.93;70.23;100998.41;1663991;84;21048;-78
2022/06/02 07:39:43;;;;;;;7.95;3.92;;;;;;;31.92;74.73;100992.78;1699287;82;21549;-78
2022/06/02 07:42:47;;;;;;;10.60;3.95;;;;;;;31.59;72.22;100990.75;1683464;82;21011;-78
2022/06/02 07:45:26;;;;;;;11.70;3.42;;;;;;;31.90;75.91;100990.83;1691756;82;21097;-77
2022/06/02 07:48:14;;;;;;;11.85;3.70;;;;;;;32.01;72.93;100984.96;1692852;83;21069;-78
2022/06/02 07:50:55;;;;;;;8.80;3.25;;;;;;;31.99;71.47;100986.16;1688292;83;21547;-76
2022/06/02 07:54:07;;;;;;;11.57;3.17;;;;;;;32.28;72.51;100991.73;1684549;83;21054;-77
2022/06/02 07:56:56;;;;;;;8.93;3.33;;;;;;;32.21;68.98;100990.38;1696096;83;21059;-78
2022/06/02 07:59:54;;;;;;;9.55;3.33;;;;;;;32.35;70.42;100988.59;1691509;82;21051;-75
2022/06/02 08:02:50;;;;;;;9.48;3.33;;;;;;;32.47;71.81;100997.65;1686358;82;21516;-76
2022/06/02 08:05:48;;;;;;;11.08;3.62;;;;;;;32.49;66.86;100992.13;1705656;82;21479;-78
2022/06/02 08:08:50;;;;;;;12.78;3.12;;;;;;;32.43;67.86;100996.92;1688145;82;21043;-78
2022/06/02 08:11:41;;;;;;;12.60;3.80;;;;;;;32.55;64.86;100994.53;1686884;84;21055;-78
2022/06/02 08:14:56;;;;;;;10.48;3.60;;;;;;;32.59;67.09;101002.44;1676214;84;21112;-80
2022/06/02 08:17:43;;;;;;;11.78;3.20;;;;;;;32.55;63.64;100995.88;1677443;84;21008;-78
2022/06/02 08:20:24;;;;;;;8.75;3.00;;;;;;;32.61;66.83;100991.06;1679622;83;21016;-81
2022/06/02 08:23:14;;;;;;;9.78;3.02;;;;;;;32.79;65.93;100993.13;1669435;84;21087;-79
2022/06/02 08:26:14;;;;;;;13.68;3.40;;;;;;;32.95;65.43;100998.09;1670221;83;21051;-79
2022/06/02 08:28:59;;;;;;;8.90;3.12;;;;;;;33.07;63.82;100995.13;1671283;83;21071;-79
2022/06/02 08:31:42;;;;;;;9.08;3.05;;;;;;;33.06;61.31;100997.99;1673335;84;21067;-81
2022/06/02 08:34:21;;;;;;;11.33;2.80;;;;;;;32.88;60.90;100994.59;1680107;83;21020;-78
2022/06/02 08:36:57;;;;;;;11.65;2.90;;;;;;;32.98;59.96;100988.34;1671081;84;21527;-79
2022/06/02 08:39:57;;;;;;;11.35;3.22;;;;;;;33.06;62.68;100986.80;1676306;83;21047;-80
2022/06/02 08:42:47;;;;;;;12.90;3.90;;;;;;;33.25;63.11;100989.19;1664686;84;21027;-78
2022/06/02 08:45:50;;;;;;;12.05;3.33;;;;;;;33.20;62.22;100990.86;1669715;85;20996;-79
2022/06/02 08:48:55;;;;;;;9.88;3.00;;;;;;;33.05;63.60;100988.34;1678348;85;21575;-78
2022/06/02 08:52:06;;;;;;;7.55;3.22;;;;;;;32.94;61.06;100997.26;1680121;85;21185;-77
2022/06/02 08:55:09;;;;;;;8.30;3.00;;;;;;;33.13;60.06;100990.83;1684510;84;21016;-77
2022/06/02 08:58:14;;;;;;;9.03;2.80;;;;;;;33.24;61.38;100990.23;1677724;84;21079;-78
2022/06/02 09:01:04;;;;;;;8.83;2.90;;;;;;;33.26;57.70;100981.50;1665552;84;21074;-78
2022/06/02 09:04:07;;;;;;;14.68;3.27;;;;;;;33.47;61.81;100983.64;1670304;85;21107;-78
2022/06/02 09:07:13;;;;;;;11.03;3.17;;;;;;;33.65;61.73;100981.17;1670468;85;21750;-78
2022/06/02 09:10:34;;;;;;;8.73;3.30;;;;;;;33.56;59.70;100986.90;1669872;85;21044;-77
2022/06/02 09:13:59;;;;;;;10.48;3.35;;;;;;;33.31;60.16;100983.05;1647452;86;21063;-78
2022/06/02 09:17:00;;;;;;;8.68;3.50;;;;;;;33.45;62.08;100979.02;1646200;87;21080;-78
2022/06/02 09:20:19;;;;;;;9.85;3.42;;;;;;;33.19;61.24;100981.20;1646182;86;21070;-78
2022/06/02 09:23:04;;;;;;;13.83;3.58;;;;;;;33.44;61.54;100981.39;1645946;86;21062;-77
2022/06/02 09:26:26;;;;;;;9.98;3.20;;;;;;;33.43;62.19;100986.41;1645851;86;21207;-76
2022/06/02 09:29:31;;;;;;;7.85;3.35;;;;;;;33.67;59.55;100982.30;1644523;86;21110;-77
2022/06/02 09:32:10;;;;;;;9.40;3.85;;;;;;;33.63;60.86;100985.89;1645020;86;21047;-78
2022/06/02 09:35:10;;;;;;;10.82;3.70;;;;;;;33.56;58.09;100989.08;1645910;86;21623;-77
2022/06/02 09:37:59;;;;;;;9.00;3.20;;;;;;;33.58;59.75;100992.36;1642877;86;21020;-77
2022/06/02 09:40:48;;;;;;;9.55;3.80;;;;;;;33.73;59.40;100987.62;1644509;86;21126;-76
2022/06/02 09:43:32;;;;;;;9.45;3.60;;;;;;;33.58;59.86;100989.69;1644807;86;21047;-78
2022/06/02 09:46:32;;;;;;;12.95;4.08;;;;;;;33.78;59.44;100983.00;1647970;86;21567;-77
2022/06/02 09:49:34;;;;;;;10.03;3.10;;;;;;;34.02;64.29;100977.45;1646085;86;21063;-77
2022/06/02 09:52:46;;;;;;;9.55;3.40;;;;;;;33.91;60.43;100984.28;1642969;86;21051;-77
2022/06/02 09:55:31;;;;;;;9.33;3.50;;;;;;;34.04;59.55;100976.73;1645082;86;21599;-77
2022/06/02 09:58:19;;;;;;;8.70;3.33;;;;;;;34.32;60.95;100982.30;1643480;87;21056;-79
2022/06/02 10:01:07;;;;;;;13.32;3.52;;;;;;;34.28;59.87;100973.06;1645550;86;21555;-77
2022/06/02 10:03:45;;;;;;;8.80;3.12;;;;;;;34.11;58.77;100980.20;1646202;86;21016;-78
2022/06/02 10:06:30;;;;;;;12.35;3.20;;;;;;;34.05;57.38;100978.38;1644423;86;21072;-77
2022/06/02 10:09:24;;;;;;;16.20;3.87;;;;;;;34.45;59.54;100974.22;1592318;87;21043;-77
2022/06/02 10:15:31;;;;;;;15.08;3.17;;;;;;;34.62;53.63;100972.37;1645470;86;21071;-78
2022/06/02 10:18:34;;;;;;;12.10;3.17;;;;;;;34.27;56.61;100974.12;1643681;86;21079;-81
2022/06/02 10:21:46;;;;;;;9.15;3.50;;;;;;;34.17;56.33;100969.75;1624470;87;21622;-80
2022/06/02 10:24:38;;;;;;;12.23;3.20;;;;;;;34.42;58.04;100963.13;1644657;86;21526;-80
2022/06/02 10:28:01;;;;;;;7.47;3.20;;;;;;;34.68;59.62;100967.52;1634361;87;21106;-79
2022/06/02 10:31:04;;;;;;;9.83;3.80;;;;;;;35.01;60.13;100963.77;1645272;86;21492;-79
2022/06/02 10:34:11;;;;;;;8.03;3.42;;;;;;;35.14;60.82;100958.81;1644566;86;21531;-79
2022/06/02 10:36:51;;;;;;;10.18;3.45;;;;;;;35.37;60.06;100961.73;1646099;86;21056;-80
2022/06/02 10:39:27;;;;;;;10.75;3.47;;;;;;;35.54;59.27;100963.83;1643508;86;21114;-80
2022/06/02 10:42:24;;;;;;;7.00;2.80;;;;;;;35.60;56.19;100962.41;1645531;86;21039;-80
2022/06/02 10:45:13;;;;;;;11.20;3.45;;;;;;;35.26;56.46;100952.58;1640060;87;21103;-80
2022/06/02 10:48:18;;;;;;;11.70;3.47;;;;;;;35.29;58.09;100956.66;1646977;87;21071;-80
2022/06/02 10:51:38;;;;;;;12.73;3.42;;;;;;;35.57;58.80;100955.36;1625896;87;21044;-79
2022/06/02 10:54:25;;;;;;;14.98;3.35;;;;;;;35.26;56.59;100958.42;1646238;86;21039;-81
2022/06/02 10:57:16;;;;;;;8.00;3.10;;;;;;;35.07;54.48;100948.18;1636215;87;21052;-80
2022/06/02 11:00:20;;;;;;;7.42;2.95;;;;;;;35.63;57.04;100952.59;1641815;85;21629;-80
2022/06/02 11:03:43;;;;;;;8.38;3.05;;;;;;;35.93;53.49;100947.02;1646082;86;21051;-78
2022/06/02 11:06:57;;;;;;;7.55;3.00;;;;;;;35.70;55.47;100948.00;1646017;86;21091;-82
2022/06/02 11:10:18;;;;;;;16.75;3.12;;;;;;;35.10;54.47;100942.41;1644538;87;21058;-79
2022/06/02 11:13:39;;;;;;;10.00;3.00;;;;;;;34.99;54.78;100941.77;1642170;86;21231;-80
2022/06/02 11:16:43;;;;;;;8.43;2.90;;;;;;;35.42;55.49;100932.95;1641595;86;21071;-79
2022/06/02 11:19:34;;;;;;;10.95;2.77;;;;;;;35.80;56.10;100936.77;1644999;86;21055;-78
2022/06/02 11:22:15;;;;;;;12.28;3.20;;;;;;;35.86;52.60;100931.04;1601822;87;21145;-79
2022/06/02 11:25:05;;;;;;;13.90;3.02;;;;;;;36.10;53.66;100930.09;1644784;86;21117;-80
2022/06/02 11:28:08;;;;;;;9.40;2.98;;;;;;;36.15;56.15;100925.42;1645438;86;21091;-79
2022/06/02 11:31:09;;;;;;;14.40;3.15;;;;;;;36.11;52.85;100929.56;1646426;85;21035;-79
2022/06/02 11:34:08;;;;;;;11.00;2.85;;;;;;;35.69;50.83;100923.62;1646043;86;21027;-78
2022/06/02 11:36:51;;;;;;;12.23;3.12;;;;;;;36.02;52.84;100922.91;1645788;86;21054;-80
2022/06/02 11:39:44;;;;;;;9.88;2.67;;;;;;;36.36;51.74;100926.79;1646634;87;21020;-79
2022/06/02 11:42:28;;;;;;;7.53;2.52;;;;;;;36.54;50.67;100924.56;1645506;86;21063;-78
2022/06/02 11:45:35;;;;;;;7.67;2.87;;;;;;;36.41;51.27;100924.22;1644586;86;21019;-80
2022/06/02 11:48:11;;;;;;;11.33;2.75;;;;;;;36.72;52.19;100916.96;1648030;86;21049;-81
2022/06/02 11:51:12;;;;;;;11.78;2.85;;;;;;;36.67;49.91;100923.03;1646505;86;21083;-80
2022/06/02 11:53:53;;;;;;;12.13;2.90;;;;;;;36.86;50.57;100927.80;1631628;87;21079;-79
2022/06/02 11:56:38;;;;;;;13.13;2.90;;;;;;;37.10;50.86;100923.75;1646440;87;21100;-79
2022/06/02 11:59:29;;;;;;;10.13;3.00;;;;;;;37.34;50.07;100925.92;1645773;86;21133;-79
2022/06/02 12:02:38;;;;;;;10.13;2.70;;;;;;;37.31;48.37;100920.20;1644851;86;21110;-80
2022/06/02 12:05:53;;;;;;;12.50;3.00;;;;;;;37.46;48.55;100919.20;1637119;87;21519;-79
2022/06/02 12:09:08;;;;;;;9.90;2.90;;;;;;;37.42;48.09;100914.02;1624048;88;21084;-79
2022/06/02 12:11:56;;;;;;;7.62;2.62;;;;;;;37.71;48.15;100910.86;1644909;85;21084;-79
2022/06/02 12:14:56;;;;;;;10.45;3.20;;;;;;;37.77;46.09;100908.56;1646531;86;21590;-79
2022/06/02 12:17:55;;;;;;;7.78;2.60;;;;;;;37.65;46.15;100903.25;1646887;86;21534;-79
2022/06/02 12:20:48;;;;;;;12.80;2.75;;;;;;;37.73;48.84;100899.88;1642653;86;21614;-79
2022/06/02 12:24:01;;;;;;;8.63;2.65;;;;;;;37.73;47.35;100898.00;1644003;86;21055;-79
2022/06/02 12:27:05;;;;;;;13.40;3.10;;;;;;;37.75;48.61;100890.52;1643180;86;21067;-80
2022/06/02 12:30:12;;;;;;;14.90;3.22;;;;;;;37.93;47.14;100884.14;1633472;87;21142;-81
2022/06/02 12:33:28;;;;;;;8.78;2.83;;;;;;;37.65;46.95;100876.89;1645670;86;21047;-80
2022/06/02 12:36:14;;;;;;;10.13;3.17;;;;;;;38.10;49.09;100868.61;1619635;88;21590;-80
2022/06/02 12:39:12;;;;;;;10.30;2.85;;;;;;;38.23;45.93;100865.09;1619284;89;21512;-79
2022/06/02 12:42:20;;;;;;;8.90;2.70;;;;;;;38.21;45.88;100863.70;1643196;86;21089;-79
2022/06/02 12:45:20;;;;;;;11.70;3.20;;;;;;;37.92;46.27;100851.63;1646734;87;21078;-79
2022/06/02 12:48:28;;;;;;;10.98;2.87;;;;;;;37.85;44.75;100849.60;1647268;86;21532;-80
2022/06/02 12:51:36;;;;;;;12.05;2.70;;;;;;;37.93;46.36;100846.52;1642034;86;21587;-79
2022/06/02 12:54:17;;;;;;;8.18;2.80;;;;;;;38.20;46.80;100848.62;1645730;86;21087;-80
2022/06/02 12:57:01;;;;;;;9.45;2.83;;;;;;;37.56;47.90;100838.83;1646101;87;21566;-79
2022/06/02 13:00:06;;;;;;;11.55;3.02;;;;;;;37.61;46.79;100836.26;1643420;86;21027;-79
2022/06/02 13:02:56;;;;;;;10.40;2.80;;;;;;;37.54;46.64;100834.77;1646994;87;21063;-79
2022/06/02 13:05:55;;;;;;;12.50;2.90;;;;;;;37.66;46.89;100839.05;1645718;87;21602;-80
2022/06/02 13:08:49;;;;;;;9.70;3.02;;;;;;;37.65;45.81;100832.57;1644933;86;21044;-79
2022/06/02 13:11:39;;;;;;;9.50;2.72;;;;;;;37.84;45.06;100835.36;1644397;86;21083;-77
2022/06/02 13:14:18;;;;;;;12.63;2.90;;;;;;;38.25;43.90;100836.08;1644151;87;21091;-79
2022/06/02 13:17:23;;;;;;;13.13;3.08;;;;;;;38.86;42.35;100826.80;1645755;86;21069;-79
2022/06/02 13:20:05;;;;;;;8.58;2.98;;;;;;;39.46;42.31;100820.33;1643468;86;21499;-77
2022/06/02 13:23:10;;;;;;;12.55;3.10;;;;;;;39.71;41.52;100818.41;1643945;86;21090;-78
2022/06/02 13:26:04;;;;;;;9.75;2.80;;;;;;;39.64;41.21;100811.05;1647133;86;21036;-79
2022/06/02 13:29:11;;;;;;;10.72;2.92;;;;;;;39.27;41.66;100804.98;1645479;86;21078;-79
2022/06/02 13:32:05;;;;;;;7.25;2.40;;;;;;;39.21;41.17;100800.06;1630688;86;21072;-79